Time;durP1;ratioP1;P1;durP2;ratioP2;P2;SDS_P1;SDS_P2;PMS_P1;PMS_P2;Temp;Humidity;BMP_temperature;BMP_pressure;BME280_temperature;BME280_humidity;BME280_pressure;Samples;Min_cycle;Max_cycle;Signal;HPM_P1;HPM_P2
2021/12/30 00:01:57;;;;;;;12.23;7.22;;;;;;;;;;4869222;29;20276;-78
2021/12/30 00:04:23;;;;;;;11.15;6.07;;;;;;;;;;4877465;29;20032;-78
2021/12/30 00:06:56;;;;;;;11.88;6.63;;;;;;;;;;4865967;29;20060;-79
2021/12/30 00:09:29;;;;;;;12.77;7.00;;;;;;;;;;4875911;29;20025;-77
2021/12/30 00:11:55;;;;;;;12.48;6.38;;;;;;;;;;4873252;29;20032;-79
2021/12/30 00:14:29;;;;;;;12.48;6.07;;;;;;;;;;4881442;29;20029;-79
2021/12/30 00:17:33;;;;;;;10.55;6.15;;;;;;;;;;4867575;29;20417;-79
2021/12/30 00:20:26;;;;;;;11.82;6.10;;;;;;;;;;4895655;29;20038;-80
2021/12/30 00:22:50;;;;;;;64.00;36.15;;;;;;;;;;4897094;29;20029;-84
2021/12/30 00:25:16;;;;;;;83.95;40.63;;;;;;;;;;4905480;29;20032;-81
2021/12/30 00:27:41;;;;;;;46.33;28.60;;;;;;;;;;4898672;29;20025;-81
2021/12/30 00:30:09;;;;;;;23.02;10.27;;;;;;;;;;4895138;29;20036;-83
2021/12/30 00:32:34;;;;;;;19.15;10.13;;;;;;;;;;4891772;29;20089;-78
2021/12/30 00:34:59;;;;;;;14.52;7.05;;;;;;;;;;4860891;29;20033;-77
2021/12/30 00:42:35;;;;;;;203.02;126.35;;;;;;;;;;5564377;23;20243;-80
2021/12/30 00:45:00;;;;;;;12.68;7.78;;;;;;;;;;4884767;29;20064;-80
2021/12/30 00:47:25;;;;;;;9.88;5.03;;;;;;;;;;4886453;29;20045;-79
2021/12/30 00:49:52;;;;;;;8.18;4.38;;;;;;;;;;4874514;29;20093;-80
2021/12/30 00:52:17;;;;;;;13.50;6.05;;;;;;;;;;4865884;29;20478;-82
2021/12/30 00:54:42;;;;;;;7.80;4.57;;;;;;;;;;4880413;29;20106;-81
2021/12/30 00:57:07;;;;;;;11.77;4.93;;;;;;;;;;4868875;29;20005;-81
2021/12/30 00:59:33;;;;;;;8.80;4.90;;;;;;;;;;4874458;29;20116;-79
2021/12/30 01:01:58;;;;;;;9.02;4.50;;;;;;;;;;4873717;29;20032;-81
2021/12/30 01:04:23;;;;;;;9.02;4.40;;;;;;;;;;4869828;29;20029;-79
2021/12/30 01:06:49;;;;;;;7.63;4.10;;;;;;;;;;4864100;29;20587;-80
2021/12/30 01:09:14;;;;;;;8.02;4.45;;;;;;;;;;4875798;29;20459;-80
2021/12/30 01:11:40;;;;;;;6.97;3.85;;;;;;;;;;4872476;29;20028;-81
2021/12/30 01:14:16;;;;;;;12.13;4.90;;;;;;;;;;4882522;29;20021;-78
2021/12/30 01:16:44;;;;;;;9.20;5.15;;;;;;;;;;4885340;29;20085;-80
2021/12/30 01:21:53;;;;;;;8.38;4.43;;;;;;;;;;4879316;29;20059;-80
2021/12/30 01:24:19;;;;;;;9.88;5.78;;;;;;;;;;4864311;29;20025;-80
2021/12/30 01:26:46;;;;;;;8.50;4.82;;;;;;;;;;4867703;29;20064;-80
2021/12/30 01:29:11;;;;;;;8.52;4.68;;;;;;;;;;4887206;29;20021;-81
2021/12/30 01:31:36;;;;;;;10.32;4.65;;;;;;;;;;4876372;29;20112;-78
2021/12/30 01:34:02;;;;;;;12.20;5.90;;;;;;;;;;4875990;29;20442;-80
2021/12/30 01:36:27;;;;;;;9.27;5.22;;;;;;;;;;4888523;29;20477;-81
2021/12/30 01:38:54;;;;;;;16.02;7.00;;;;;;;;;;4870482;29;20390;-81
2021/12/30 01:41:20;;;;;;;14.63;7.03;;;;;;;;;;4874801;29;20073;-81
2021/12/30 01:43:46;;;;;;;10.25;5.47;;;;;;;;;;4872281;29;20042;-81
2021/12/30 01:46:11;;;;;;;14.27;6.13;;;;;;;;;;4876945;29;20085;-81
2021/12/30 01:48:37;;;;;;;8.93;5.10;;;;;;;;;;4868626;29;20433;-81
2021/12/30 01:51:03;;;;;;;9.75;5.22;;;;;;;;;;4884670;29;20025;-81
2021/12/30 01:53:29;;;;;;;10.52;5.93;;;;;;;;;;4873154;29;20123;-80
2021/12/30 01:55:54;;;;;;;9.98;5.10;;;;;;;;;;4870662;29;20029;-81
2021/12/30 01:58:20;;;;;;;9.88;5.40;;;;;;;;;;4885167;29;20044;-81
2021/12/30 02:00:47;;;;;;;13.82;5.70;;;;;;;;;;4890927;29;20040;-81
2021/12/30 02:03:13;;;;;;;13.63;6.18;;;;;;;;;;4892014;29;20044;-80
2021/12/30 02:05:39;;;;;;;107.88;69.95;;;;;;;;;;4884626;29;20413;-77
2021/12/30 02:08:05;;;;;;;68.65;33.65;;;;;;;;;;4872627;29;20044;-78
2021/12/30 02:10:31;;;;;;;23.65;11.05;;;;;;;;;;4865941;29;20035;-78
2021/12/30 02:12:56;;;;;;;12.48;6.18;;;;;;;;;;4878798;29;20100;-77
2021/12/30 02:15:21;;;;;;;13.98;7.68;;;;;;;;;;4874656;29;20086;-76
2021/12/30 02:22:57;;;;;;;15.65;8.13;;;;;;;;;;5451517;23;20045;-78
2021/12/30 02:25:22;;;;;;;9.30;5.00;;;;;;;;;;4881337;29;20033;-78
2021/12/30 02:27:47;;;;;;;10.32;5.35;;;;;;;;;;4878504;29;20025;-77
2021/12/30 02:30:12;;;;;;;10.77;5.78;;;;;;;;;;4879063;29;20051;-77
2021/12/30 02:32:38;;;;;;;10.00;5.78;;;;;;;;;;4881215;29;20013;-78
2021/12/30 02:35:03;;;;;;;9.20;4.50;;;;;;;;;;4863677;29;20513;-77
2021/12/30 02:37:28;;;;;;;8.07;4.30;;;;;;;;;;4875983;29;20029;-77
2021/12/30 02:39:54;;;;;;;10.13;4.13;;;;;;;;;;4871051;29;20021;-76
2021/12/30 02:42:23;;;;;;;11.30;5.15;;;;;;;;;;4869489;29;20025;-79
2021/12/30 02:44:48;;;;;;;8.40;4.40;;;;;;;;;;4880656;29;20021;-79
2021/12/30 02:47:14;;;;;;;10.00;5.60;;;;;;;;;;4863988;29;20049;-78
2021/12/30 02:49:39;;;;;;;7.60;4.25;;;;;;;;;;4868879;29;20027;-77
2021/12/30 02:52:05;;;;;;;8.25;4.38;;;;;;;;;;4870983;29;20085;-78
2021/12/30 02:54:30;;;;;;;6.80;3.40;;;;;;;;;;4875614;29;20021;-78
2021/12/30 02:56:55;;;;;;;6.47;3.60;;;;;;;;;;4867180;29;20085;-79
2021/12/30 02:59:27;;;;;;;507.30;241.15;;;;;;;;;;4874242;29;20021;-80
2021/12/30 03:01:52;;;;;;;28.38;14.40;;;;;;;;;;4863967;29;20033;-79
2021/12/30 03:04:18;;;;;;;12.48;5.90;;;;;;;;;;4891860;29;20020;-82
2021/12/30 03:06:43;;;;;;;42.17;23.17;;;;;;;;;;4890877;29;20115;-80
2021/12/30 03:09:08;;;;;;;45.40;28.63;;;;;;;;;;4872788;29;20024;-88
2021/12/30 03:11:34;;;;;;;240.32;152.02;;;;;;;;;;4890183;29;20454;-86
2021/12/30 03:14:01;;;;;;;92.05;48.70;;;;;;;;;;4877071;29;20078;-76
2021/12/30 03:16:29;;;;;;;11.23;5.45;;;;;;;;;;4862809;29;20048;-78
2021/12/30 03:18:54;;;;;;;11.45;5.78;;;;;;;;;;4876488;29;20017;-77
2021/12/30 03:21:20;;;;;;;10.20;5.35;;;;;;;;;;4862096;29;20445;-77
2021/12/30 03:23:46;;;;;;;12.65;5.88;;;;;;;;;;4860691;29;20034;-78
2021/12/30 03:26:11;;;;;;;7.50;4.28;;;;;;;;;;4875889;29;20492;-77
2021/12/30 03:28:41;;;;;;;9.70;4.57;;;;;;;;;;4869797;29;20081;-78
2021/12/30 03:31:07;;;;;;;11.10;5.45;;;;;;;;;;4870110;29;20024;-78
2021/12/30 03:33:32;;;;;;;9.93;4.78;;;;;;;;;;4877923;29;20014;-79
2021/12/30 03:36:01;;;;;;;7.90;4.25;;;;;;;;;;4876623;29;20025;-78
2021/12/30 03:38:30;;;;;;;7.60;3.60;;;;;;;;;;4873042;29;20021;-80
2021/12/30 03:40:56;;;;;;;6.90;4.25;;;;;;;;;;4875020;29;20474;-80
2021/12/30 03:43:21;;;;;;;7.32;3.40;;;;;;;;;;4880186;29;20021;-78
2021/12/30 03:45:46;;;;;;;6.72;3.58;;;;;;;;;;4873280;29;20021;-78
2021/12/30 03:48:12;;;;;;;5.60;3.20;;;;;;;;;;4873774;29;20074;-80
2021/12/30 03:50:43;;;;;;;10.48;4.22;;;;;;;;;;4877110;29;20024;-80
2021/12/30 03:53:09;;;;;;;6.13;3.30;;;;;;;;;;4865860;29;20040;-83
2021/12/30 03:55:34;;;;;;;7.75;3.45;;;;;;;;;;4876296;29;20072;-81
2021/12/30 03:57:59;;;;;;;9.68;3.35;;;;;;;;;;4874944;29;20025;-78
2021/12/30 04:00:26;;;;;;;5.75;3.10;;;;;;;;;;4872154;29;20026;-80
2021/12/30 04:02:51;;;;;;;5.72;3.22;;;;;;;;;;4881832;29;20119;-79
2021/12/30 04:05:17;;;;;;;4.63;2.88;;;;;;;;;;4874851;29;20073;-80
2021/12/30 04:07:42;;;;;;;5.18;2.95;;;;;;;;;;4879585;29;20462;-79
2021/12/30 04:10:08;;;;;;;5.35;2.92;;;;;;;;;;4871800;29;20046;-80
2021/12/30 04:12:34;;;;;;;7.80;2.92;;;;;;;;;;4887698;29;20019;-81
2021/12/30 04:15:00;;;;;;;5.05;2.83;;;;;;;;;;4886258;29;20091;-78
2021/12/30 04:17:25;;;;;;;4.75;2.88;;;;;;;;;;4872369;29;20049;-79
2021/12/30 04:19:51;;;;;;;8.07;3.10;;;;;;;;;;4870684;29;20034;-79
2021/12/30 04:22:18;;;;;;;5.00;2.88;;;;;;;;;;4882035;29;20025;-79
2021/12/30 04:24:44;;;;;;;6.47;2.95;;;;;;;;;;4870456;29;20454;-81
2021/12/30 04:27:09;;;;;;;5.25;2.80;;;;;;;;;;4882252;29;20017;-80
2021/12/30 04:29:34;;;;;;;10.57;3.15;;;;;;;;;;4874113;29;20058;-77
2021/12/30 04:32:00;;;;;;;7.93;2.72;;;;;;;;;;4874910;29;20081;-78
2021/12/30 04:34:25;;;;;;;5.68;2.85;;;;;;;;;;4868601;29;20478;-77
2021/12/30 04:36:50;;;;;;;6.20;3.08;;;;;;;;;;4879605;29;20076;-77
2021/12/30 04:39:15;;;;;;;8.15;3.10;;;;;;;;;;4867896;29;20100;-77
2021/12/30 04:41:41;;;;;;;5.60;2.72;;;;;;;;;;4873725;29;20093;-78
2021/12/30 04:44:06;;;;;;;6.75;2.55;;;;;;;;;;4873461;29;20389;-80
2021/12/30 04:46:33;;;;;;;8.40;2.90;;;;;;;;;;4865601;29;20541;-78
2021/12/30 04:48:58;;;;;;;5.07;2.80;;;;;;;;;;4877046;29;20032;-80
2021/12/30 04:51:23;;;;;;;6.05;2.90;;;;;;;;;;4869185;29;20029;-77
2021/12/30 04:53:49;;;;;;;9.52;3.00;;;;;;;;;;4869938;29;20397;-77
2021/12/30 04:56:14;;;;;;;38.15;19.55;;;;;;;;;;4871865;29;20500;-88
2021/12/30 04:58:40;;;;;;;71.68;33.80;;;;;;;;;;4870291;29;20026;-80
2021/12/30 05:01:06;;;;;;;24.00;12.10;;;;;;;;;;4874451;29;20112;-78
2021/12/30 05:03:31;;;;;;;10.80;5.88;;;;;;;;;;4873204;29;20109;-79
2021/12/30 05:05:58;;;;;;;11.05;4.88;;;;;;;;;;4871533;29;20480;-78
2021/12/30 05:08:24;;;;;;;7.35;3.05;;;;;;;;;;4895600;29;20020;-81
2021/12/30 05:10:50;;;;;;;38.97;22.83;;;;;;;;;;4879718;29;20021;-79
2021/12/30 05:13:17;;;;;;;67.10;31.52;;;;;;;;;;4880128;29;20025;-81
2021/12/30 05:15:42;;;;;;;16.77;7.80;;;;;;;;;;5129506;23;20109;-79
2021/12/30 05:18:09;;;;;;;8.85;3.05;;;;;;;;;;4893875;29;20029;-83
2021/12/30 05:20:35;;;;;;;7.30;2.88;;;;;;;;;;4890076;29;20029;-82
2021/12/30 05:23:03;;;;;;;7.38;2.90;;;;;;;;;;4891531;29;20626;-80
2021/12/30 05:25:29;;;;;;;8.70;3.35;;;;;;;;;;4894378;29;20483;-81
2021/12/30 05:27:57;;;;;;;13.50;3.03;;;;;;;;;;4894783;29;20099;-81
2021/12/30 05:30:26;;;;;;;5.70;3.05;;;;;;;;;;4881208;29;20020;-82
2021/12/30 05:32:52;;;;;;;7.70;3.03;;;;;;;;;;4876372;29;20097;-82
2021/12/30 05:35:18;;;;;;;4.88;2.40;;;;;;;;;;4876939;29;20157;-81
2021/12/30 05:37:43;;;;;;;8.75;3.60;;;;;;;;;;4881755;29;20045;-81
2021/12/30 05:40:10;;;;;;;8.45;3.08;;;;;;;;;;4870682;29;20024;-81
2021/12/30 05:42:36;;;;;;;7.97;2.90;;;;;;;;;;4868447;29;20089;-80
2021/12/30 05:45:03;;;;;;;6.82;3.38;;;;;;;;;;4869744;29;20543;-80
2021/12/30 05:47:28;;;;;;;8.13;3.30;;;;;;;;;;4873861;29;20025;-82
2021/12/30 05:49:53;;;;;;;11.45;3.38;;;;;;;;;;4875112;29;20090;-81
2021/12/30 05:52:19;;;;;;;10.23;3.65;;;;;;;;;;4881816;29;20036;-82
2021/12/30 05:54:44;;;;;;;8.13;3.35;;;;;;;;;;5079193;23;20779;-82
2021/12/30 05:57:10;;;;;;;9.00;3.45;;;;;;;;;;4896117;29;20021;-82
2021/12/30 05:59:36;;;;;;;7.78;3.42;;;;;;;;;;4896253;29;20036;-82
2021/12/30 06:02:01;;;;;;;7.47;3.60;;;;;;;;;;4890042;29;20029;-82
2021/12/30 06:04:27;;;;;;;8.23;3.50;;;;;;;;;;4892646;29;20025;-82
2021/12/30 06:06:53;;;;;;;9.18;3.75;;;;;;;;;;4888345;29;20027;-81
2021/12/30 06:09:22;;;;;;;9.07;3.42;;;;;;;;;;4894418;29;20028;-81
2021/12/30 06:11:47;;;;;;;10.13;3.28;;;;;;;;;;4894586;29;20052;-80
2021/12/30 06:14:12;;;;;;;8.30;3.30;;;;;;;;;;4897926;29;20025;-82
2021/12/30 06:16:38;;;;;;;7.50;3.00;;;;;;;;;;4896363;29;20054;-81
2021/12/30 06:19:03;;;;;;;11.15;3.47;;;;;;;;;;4899182;29;20031;-82
2021/12/30 06:21:28;;;;;;;7.88;3.17;;;;;;;;;;4896929;29;20076;-80
2021/12/30 06:23:53;;;;;;;12.45;3.58;;;;;;;;;;4894762;29;20110;-81
2021/12/30 06:26:19;;;;;;;10.80;3.92;;;;;;;;;;4891167;29;20028;-81
2021/12/30 06:28:44;;;;;;;9.00;3.70;;;;;;;;;;4872472;29;20017;-82
2021/12/30 06:31:10;;;;;;;7.03;3.75;;;;;;;;;;4871854;29;20398;-82
2021/12/30 06:33:35;;;;;;;10.15;3.88;;;;;;;;;;4876155;29;20046;-81
2021/12/30 06:36:00;;;;;;;11.25;3.70;;;;;;;;;;4875603;29;20441;-81
2021/12/30 06:38:26;;;;;;;7.13;3.67;;;;;;;;;;4890330;29;20040;-81
2021/12/30 06:40:51;;;;;;;7.60;3.60;;;;;;;;;;4882225;29;20058;-81
2021/12/30 06:43:17;;;;;;;8.85;3.67;;;;;;;;;;4879107;29;20090;-82
2021/12/30 06:45:45;;;;;;;14.27;3.63;;;;;;;;;;4887719;29;20048;-82
2021/12/30 06:48:14;;;;;;;12.35;4.00;;;;;;;;;;4901168;29;20037;-82
2021/12/30 06:50:41;;;;;;;14.02;3.97;;;;;;;;;;4902476;29;20033;-82
2021/12/30 06:53:06;;;;;;;9.07;3.22;;;;;;;;;;4896869;29;20024;-83
2021/12/30 06:55:32;;;;;;;13.27;3.17;;;;;;;;;;4898794;29;20029;-82
2021/12/30 06:58:00;;;;;;;8.75;3.55;;;;;;;;;;4901261;29;20025;-82
2021/12/30 07:00:25;;;;;;;6.93;3.33;;;;;;;;;;4901089;29;20025;-82
2021/12/30 07:02:51;;;;;;;10.60;3.58;;;;;;;;;;4900877;29;20061;-82
2021/12/30 07:05:17;;;;;;;7.78;3.38;;;;;;;;;;4905000;29;20080;-82
2021/12/30 07:07:45;;;;;;;11.75;3.75;;;;;;;;;;4895908;29;20021;-82
2021/12/30 07:10:11;;;;;;;16.00;4.72;;;;;;;;;;4882481;29;20049;-80
2021/12/30 07:12:37;;;;;;;7.78;3.60;;;;;;;;;;4882426;29;20013;-82
2021/12/30 07:15:03;;;;;;;11.35;3.60;;;;;;;;;;4883480;29;20006;-82
2021/12/30 07:17:32;;;;;;;11.73;4.20;;;;;;;;;;4887722;29;20029;-83
2021/12/30 07:20:07;;;;;;;10.45;3.20;;;;;;;;;;4886049;29;20014;-82
2021/12/30 07:22:33;;;;;;;19.45;3.88;;;;;;;;;;4884419;29;20017;-82
2021/12/30 07:24:58;;;;;;;16.10;4.35;;;;;;;;;;4882201;29;20018;-82
2021/12/30 07:27:24;;;;;;;12.02;3.67;;;;;;;;;;4877061;29;20045;-82
2021/12/30 07:29:52;;;;;;;16.27;4.63;;;;;;;;;;4879238;29;20017;-83
2021/12/30 07:32:18;;;;;;;13.40;4.03;;;;;;;;;;4886440;29;20002;-82
2021/12/30 07:34:48;;;;;;;13.55;4.32;;;;;;;;;;4880966;29;20028;-89
2021/12/30 07:37:16;;;;;;;16.35;4.60;;;;;;;;;;4887448;29;20002;-81
2021/12/30 07:39:42;;;;;;;11.82;3.75;;;;;;;;;;4890862;29;20006;-83
2021/12/30 07:42:07;;;;;;;9.93;3.50;;;;;;;;;;4901380;29;20060;-80
2021/12/30 07:44:36;;;;;;;16.25;3.30;;;;;;;;;;4886025;29;20013;-82
2021/12/30 07:47:01;;;;;;;10.32;4.10;;;;;;;;;;4883520;29;20017;-82
2021/12/30 07:49:26;;;;;;;11.93;3.88;;;;;;;;;;4903140;29;20013;-82
2021/12/30 07:51:52;;;;;;;17.73;4.60;;;;;;;;;;4903245;29;20041;-81
2021/12/30 07:54:17;;;;;;;11.20;3.95;;;;;;;;;;4886987;29;20026;-82
2021/12/30 07:56:42;;;;;;;14.15;4.25;;;;;;;;;;4882541;29;20044;-82
2021/12/30 07:59:10;;;;;;;16.23;4.30;;;;;;;;;;4881825;29;20032;-82
2021/12/30 08:01:35;;;;;;;8.25;3.80;;;;;;;;;;4882853;29;20553;-82
2021/12/30 08:04:01;;;;;;;10.93;4.90;;;;;;;;;;4884872;29;20033;-82
2021/12/30 08:06:27;;;;;;;20.05;5.97;;;;;;;;;;4897524;29;20029;-82
2021/12/30 08:08:52;;;;;;;23.98;6.38;;;;;;;;;;4879512;29;20022;-81
2021/12/30 08:11:18;;;;;;;18.33;4.90;;;;;;;;;;4891476;29;20106;-81
2021/12/30 08:13:43;;;;;;;13.88;4.65;;;;;;;;;;4880919;29;20046;-81
2021/12/30 08:16:08;;;;;;;19.75;5.97;;;;;;;;;;4880366;29;20024;-82
2021/12/30 08:18:33;;;;;;;18.80;4.72;;;;;;;;;;4883575;29;20036;-82
2021/12/30 08:20:59;;;;;;;20.02;4.10;;;;;;;;;;4894905;29;20022;-82
2021/12/30 08:23:24;;;;;;;14.77;4.28;;;;;;;;;;4876259;29;20034;-82
2021/12/30 08:25:51;;;;;;;17.60;5.47;;;;;;;;;;4885070;29;20279;-82
2021/12/30 08:28:17;;;;;;;15.23;3.63;;;;;;;;;;4894481;29;20012;-80
2021/12/30 08:30:42;;;;;;;14.85;3.25;;;;;;;;;;4891615;29;20031;-80
2021/12/30 08:33:08;;;;;;;17.90;3.90;;;;;;;;;;4872389;29;20108;-81
2021/12/30 08:35:33;;;;;;;11.20;3.80;;;;;;;;;;4882736;29;20029;-81
2021/12/30 08:38:01;;;;;;;13.35;3.88;;;;;;;;;;4893621;29;20024;-80
2021/12/30 08:40:26;;;;;;;11.77;3.17;;;;;;;;;;4881624;29;20022;-81
2021/12/30 08:42:52;;;;;;;17.67;3.88;;;;;;;;;;4898259;29;20080;-82
2021/12/30 08:45:17;;;;;;;13.98;4.50;;;;;;;;;;4888902;29;20077;-82
2021/12/30 08:47:43;;;;;;;14.85;3.60;;;;;;;;;;4885135;29;20009;-81
2021/12/30 08:50:10;;;;;;;13.35;4.38;;;;;;;;;;4886681;29;20024;-81
2021/12/30 08:52:35;;;;;;;16.85;3.38;;;;;;;;;;4875680;29;20025;-80
2021/12/30 08:55:04;;;;;;;11.88;3.40;;;;;;;;;;4891315;29;20068;-82
2021/12/30 08:57:32;;;;;;;13.38;5.47;;;;;;;;;;4899245;29;20025;-82
2021/12/30 09:00:07;;;;;;;15.82;3.25;;;;;;;;;;4900059;29;20009;-83
2021/12/30 09:02:32;;;;;;;10.35;2.45;;;;;;;;;;5285722;23;20054;-81
2021/12/30 09:04:59;;;;;;;10.50;2.70;;;;;;;;;;4936836;29;20019;-82
2021/12/30 09:07:27;;;;;;;13.18;3.20;;;;;;;;;;4930588;29;20005;-82
2021/12/30 09:09:52;;;;;;;11.80;4.20;;;;;;;;;;4916631;29;20115;-81
2021/12/30 09:12:25;;;;;;;14.20;3.33;;;;;;;;;;4916744;29;20028;-83
2021/12/30 09:14:55;;;;;;;11.85;4.03;;;;;;;;;;4919780;29;20075;-83
2021/12/30 09:17:26;;;;;;;17.10;3.47;;;;;;;;;;4922051;29;20028;-82
2021/12/30 09:19:55;;;;;;;13.07;3.63;;;;;;;;;;4919414;29;20092;-82
2021/12/30 09:22:22;;;;;;;10.35;2.60;;;;;;;;;;4920115;29;20012;-82
2021/12/30 09:24:50;;;;;;;11.40;3.15;;;;;;;;;;4918152;29;20033;-84
2021/12/30 09:27:16;;;;;;;8.52;3.13;;;;;;;;;;4919484;29;20108;-82
2021/12/30 09:29:42;;;;;;;16.92;3.97;;;;;;;;;;4923354;29;20012;-83
2021/12/30 09:32:12;;;;;;;10.43;2.88;;;;;;;;;;5071757;23;20044;-83
2021/12/30 09:34:38;;;;;;;13.27;3.55;;;;;;;;;;4915044;23;20049;-83
2021/12/30 09:37:09;;;;;;;13.40;2.72;;;;;;;;;;4903330;29;20037;-83
2021/12/30 09:39:51;;;;;;;13.77;2.88;;;;;;;;;;4903152;29;20080;-83
2021/12/30 09:42:19;;;;;;;10.65;2.80;;;;;;;;;;4903551;29;20023;-83
2021/12/30 09:47:52;;;;;;;17.90;4.70;;;;;;;;;;5103609;23;20125;-83
2021/12/30 09:50:18;;;;;;;15.70;3.47;;;;;;;;;;5055312;28;20017;-88
2021/12/30 09:52:43;;;;;;;19.17;3.83;;;;;;;;;;5052990;28;20022;-82
2021/12/30 09:55:09;;;;;;;11.15;3.13;;;;;;;;;;5054744;28;20030;-81
2021/12/30 09:57:35;;;;;;;13.65;3.40;;;;;;;;;;5051046;28;20025;-85
2021/12/30 10:00:00;;;;;;;13.38;3.38;;;;;;;;;;5052744;28;20006;-83
2021/12/30 10:02:25;;;;;;;11.52;3.88;;;;;;;;;;5035785;28;20512;-81
2021/12/30 10:05:13;;;;;;;13.25;3.90;;;;;;;;;;5034528;28;20443;-78
2021/12/30 10:07:41;;;;;;;17.20;3.97;;;;;;;;;;5043043;28;20025;-83
2021/12/30 10:10:26;;;;;;;14.85;4.07;;;;;;;;;;5037923;28;20029;-84
2021/12/30 10:12:51;;;;;;;13.45;4.03;;;;;;;;;;5032792;28;20040;-84
2021/12/30 10:15:16;;;;;;;9.48;3.75;;;;;;;;;;5043392;28;20544;-81
2021/12/30 10:17:41;;;;;;;10.13;2.85;;;;;;;;;;5038045;28;20018;-80
2021/12/30 10:20:14;;;;;;;12.52;3.30;;;;;;;;;;5022388;28;20025;-82
2021/12/30 10:22:40;;;;;;;17.17;4.28;;;;;;;;;;5023319;28;20029;-81
2021/12/30 10:25:23;;;;;;;12.80;3.90;;;;;;;;;;5041932;28;20013;-82
2021/12/30 10:27:48;;;;;;;12.32;4.03;;;;;;;;;;5044271;28;20014;-81
2021/12/30 10:30:27;;;;;;;10.93;3.65;;;;;;;;;;5037036;28;20049;-81
2021/12/30 10:32:52;;;;;;;6.03;2.50;;;;;;;;;;5043787;28;20017;-82
2021/12/30 10:35:17;;;;;;;17.40;4.88;;;;;;;;;;5042622;28;20033;-81
2021/12/30 10:37:45;;;;;;;16.35;3.45;;;;;;;;;;5043178;28;20049;-81
2021/12/30 10:40:25;;;;;;;14.50;3.30;;;;;;;;;;5042766;28;20049;-82
2021/12/30 10:42:51;;;;;;;10.35;3.22;;;;;;;;;;5042318;28;20034;-80
2021/12/30 10:45:19;;;;;;;8.98;2.80;;;;;;;;;;5035611;28;20030;-84
2021/12/30 10:47:52;;;;;;;12.95;3.03;;;;;;;;;;5042950;28;20030;-85
2021/12/30 10:50:20;;;;;;;15.73;3.88;;;;;;;;;;5040638;28;20127;-89
2021/12/30 10:52:53;;;;;;;8.48;2.33;;;;;;;;;;5032386;28;20042;-84
2021/12/30 10:55:18;;;;;;;7.72;2.88;;;;;;;;;;5031798;28;20200;-88
2021/12/30 10:57:44;;;;;;;17.48;3.33;;;;;;;;;;5035180;28;20025;-84
2021/12/30 11:00:10;;;;;;;9.57;3.45;;;;;;;;;;5022307;28;20105;-87
2021/12/30 11:02:36;;;;;;;15.77;3.28;;;;;;;;;;5018918;28;20018;-88
2021/12/30 11:05:06;;;;;;;9.88;3.13;;;;;;;;;;5031554;28;20014;-84
2021/12/30 11:07:46;;;;;;;9.52;2.47;;;;;;;;;;5040035;28;20022;-87
2021/12/30 11:10:13;;;;;;;9.88;2.25;;;;;;;;;;5039654;28;20041;-83
2021/12/30 11:12:45;;;;;;;9.20;2.70;;;;;;;;;;5039673;28;20081;-82
2021/12/30 11:15:26;;;;;;;11.35;2.70;;;;;;;;;;5040446;28;20026;-84
2021/12/30 11:18:11;;;;;;;7.53;2.33;;;;;;;;;;5039853;28;20018;-84
2021/12/30 11:20:42;;;;;;;10.82;1.83;;;;;;;;;;5038988;28;20045;-84
2021/12/30 11:23:07;;;;;;;;;;;;;;;;;;5038017;28;20026;-87
2021/12/30 11:25:32;;;;;;;11.80;2.42;;;;;;;;;;5030892;28;20379;-87
2021/12/30 11:27:59;;;;;;;7.82;2.58;;;;;;;;;;5038821;28;20009;-82
2021/12/30 11:30:26;;;;;;;7.63;2.20;;;;;;;;;;5039202;28;20040;-83
2021/12/30 11:32:51;;;;;;;10.00;2.75;;;;;;;;;;5035929;28;20062;-83
2021/12/30 11:35:20;;;;;;;8.88;2.60;;;;;;;;;;5033672;28;20037;-82
2021/12/30 11:37:47;;;;;;;4.70;2.13;;;;;;;;;;5020682;28;20497;-82
2021/12/30 11:40:14;;;;;;;6.32;1.92;;;;;;;;;;5009142;28;20018;-83
2021/12/30 11:42:44;;;;;;;9.63;2.35;;;;;;;;;;5013678;28;20022;-82
2021/12/30 11:45:28;;;;;;;6.95;2.03;;;;;;;;;;5015863;28;20022;-84
2021/12/30 11:47:55;;;;;;;12.82;3.15;;;;;;;;;;5016503;28;20050;-85
2021/12/30 11:50:26;;;;;;;5.65;2.22;;;;;;;;;;5015450;28;20031;-82
2021/12/30 11:52:52;;;;;;;3.97;2.15;;;;;;;;;;5015472;28;20002;-87
2021/12/30 11:55:39;;;;;;;6.88;2.90;;;;;;;;;;5017192;28;20014;-83
2021/12/30 11:58:23;;;;;;;9.93;2.65;;;;;;;;;;5017484;28;20025;-83
2021/12/30 12:00:50;;;;;;;5.45;1.95;;;;;;;;;;5019078;28;20049;-83
2021/12/30 12:03:32;;;;;;;5.47;2.22;;;;;;;;;;5017652;28;20018;-83
2021/12/30 12:06:07;;;;;;;4.00;1.40;;;;;;;;;;5025597;28;20026;-84
2021/12/30 12:08:43;;;;;;;4.93;1.60;;;;;;;;;;5036657;28;20018;-83
2021/12/30 12:11:13;;;;;;;5.28;1.40;;;;;;;;;;5036508;28;20057;-83
2021/12/30 12:13:40;;;;;;;4.55;1.63;;;;;;;;;;5036723;28;20065;-83
2021/12/30 12:16:08;;;;;;;3.88;1.25;;;;;;;;;;5037169;28;20042;-84
2021/12/30 12:18:34;;;;;;;3.42;1.23;;;;;;;;;;5036374;28;20002;-81
2021/12/30 12:21:02;;;;;;;3.97;1.30;;;;;;;;;;5038199;28;20010;-83
2021/12/30 12:23:35;;;;;;;3.90;1.10;;;;;;;;;;5035479;28;20056;-83
2021/12/30 12:26:20;;;;;;;5.47;1.60;;;;;;;;;;5034417;28;20006;-85
2021/12/30 12:28:47;;;;;;;5.22;1.10;;;;;;;;;;5029081;28;20042;-84
2021/12/30 12:31:13;;;;;;;2.42;1.20;;;;;;;;;;5030076;28;20018;-84
2021/12/30 12:33:42;;;;;;;3.33;0.82;;;;;;;;;;5020245;28;20089;-85
2021/12/30 12:36:10;;;;;;;3.55;1.20;;;;;;;;;;5033222;28;20021;-83
2021/12/30 12:41:35;;;;;;;4.80;1.17;;;;;;;;;;5215037;23;20039;-84
2021/12/30 12:44:12;;;;;;;4.32;0.95;;;;;;;;;;4998650;28;20082;-83
2021/12/30 12:49:32;;;;;;;3.90;1.15;;;;;;;;;;5665883;23;20039;-82
2021/12/30 12:51:58;;;;;;;3.47;1.30;;;;;;;;;;4992997;28;20018;-82
2021/12/30 12:54:45;;;;;;;2.65;1.17;;;;;;;;;;4997213;28;20119;-83
2021/12/30 12:57:19;;;;;;;3.92;1.42;;;;;;;;;;4998407;28;20022;-83
2021/12/30 12:59:49;;;;;;;2.17;0.77;;;;;;;;;;4995955;28;20034;-82
2021/12/30 13:02:16;;;;;;;1.52;0.70;;;;;;;;;;4994723;28;20033;-82
2021/12/30 13:04:45;;;;;;;1.27;0.80;;;;;;;;;;4998166;28;20031;-83
2021/12/30 13:07:16;;;;;;;1.55;0.82;;;;;;;;;;4997450;28;20087;-83
2021/12/30 13:09:45;;;;;;;2.72;1.20;;;;;;;;;;4998268;28;20029;-83
2021/12/30 13:12:14;;;;;;;1.67;0.77;;;;;;;;;;4995648;28;20015;-83
2021/12/30 13:14:39;;;;;;;;;;;;;;;;;;4993857;28;20107;-82
2021/12/30 13:17:06;;;;;;;1.85;0.80;;;;;;;;;;4993759;28;19905;-82
2021/12/30 13:19:36;;;;;;;2.10;0.80;;;;;;;;;;4992102;28;20030;-83
2021/12/30 13:22:09;;;;;;;2.38;0.75;;;;;;;;;;4993581;28;20015;-82
2021/12/30 13:24:39;;;;;;;1.83;0.75;;;;;;;;;;4991255;28;20015;-81
2021/12/30 13:27:08;;;;;;;2.38;0.88;;;;;;;;;;4970223;28;20023;-82
2021/12/30 13:29:38;;;;;;;1.92;0.80;;;;;;;;;;4977308;28;20038;-81
2021/12/30 13:32:14;;;;;;;1.27;0.60;;;;;;;;;;4993063;28;20031;-82
2021/12/30 13:34:58;;;;;;;1.20;0.60;;;;;;;;;;4994365;28;20011;-83
2021/12/30 13:37:28;;;;;;;2.30;0.75;;;;;;;;;;4993873;28;20015;-83
2021/12/30 13:39:55;;;;;;;1.08;0.50;;;;;;;;;;4994712;28;20054;-83
2021/12/30 13:42:22;;;;;;;1.40;0.80;;;;;;;;;;4994040;28;20011;-81
2021/12/30 13:44:49;;;;;;;2.70;1.13;;;;;;;;;;4993919;28;20513;-82
2021/12/30 13:47:14;;;;;;;1.55;0.60;;;;;;;;;;4994614;28;20149;-82
2021/12/30 13:49:40;;;;;;;1.73;0.52;;;;;;;;;;4993994;28;20015;-82
2021/12/30 13:52:07;;;;;;;1.25;0.70;;;;;;;;;;4992948;28;20034;-82
2021/12/30 13:54:32;;;;;;;2.90;0.70;;;;;;;;;;4988935;28;20046;-82
2021/12/30 13:56:57;;;;;;;2.15;0.90;;;;;;;;;;4987268;28;20023;-82
2021/12/30 13:59:29;;;;;;;1.05;0.50;;;;;;;;;;4997088;28;20011;-82
2021/12/30 14:01:59;;;;;;;1.63;0.73;;;;;;;;;;4996763;28;20049;-82
2021/12/30 14:04:39;;;;;;;1.50;0.75;;;;;;;;;;4998852;28;20018;-83
2021/12/30 14:10:02;;;;;;;1.83;0.68;;;;;;;;;;4979671;28;20008;-84
2021/12/30 14:12:28;;;;;;;4.22;1.10;;;;;;;;;;4977664;28;20047;-84
2021/12/30 14:14:54;;;;;;;1.52;0.50;;;;;;;;;;4977010;29;20019;-83
2021/12/30 14:17:20;;;;;;;1.35;0.60;;;;;;;;;;4978440;28;20014;-83
2021/12/30 14:19:49;;;;;;;2.20;0.80;;;;;;;;;;4978126;28;20035;-82
2021/12/30 14:22:14;;;;;;;2.22;0.70;;;;;;;;;;4978805;28;20026;-83
2021/12/30 14:24:41;;;;;;;2.03;0.80;;;;;;;;;;4978592;28;20047;-84
2021/12/30 14:27:14;;;;;;;1.75;0.55;;;;;;;;;;4981766;28;20014;-83
2021/12/30 14:32:17;;;;;;;1.00;0.57;;;;;;;;;;5071556;23;20034;-84
2021/12/30 14:34:49;;;;;;;1.25;0.68;;;;;;;;;;4985158;28;20026;-83
2021/12/30 14:39:57;;;;;;;1.55;0.50;;;;;;;;;;5293518;23;20065;-84
2021/12/30 14:42:33;;;;;;;3.28;0.65;;;;;;;;;;5024117;28;20026;-85
2021/12/30 14:45:19;;;;;;;1.85;0.68;;;;;;;;;;5024585;28;20097;-84
2021/12/30 14:47:48;;;;;;;1.52;0.40;;;;;;;;;;5067999;23;20047;-84
2021/12/30 14:50:17;;;;;;;1.35;0.70;;;;;;;;;;5285611;23;20054;-83
2021/12/30 14:52:50;;;;;;;0.88;0.50;;;;;;;;;;5002203;28;20011;-83
2021/12/30 14:55:16;;;;;;;0.77;0.50;;;;;;;;;;5017142;23;20031;-83
2021/12/30 14:57:42;;;;;;;1.13;0.63;;;;;;;;;;5041596;28;20014;-84
2021/12/30 15:00:10;;;;;;;1.67;0.63;;;;;;;;;;5504219;23;20013;-82
2021/12/30 15:02:36;;;;;;;2.17;1.00;;;;;;;;;;5079166;23;20061;-82
2021/12/30 15:05:01;;;;;;;1.77;0.63;;;;;;;;;;5032915;28;20712;-82
2021/12/30 15:07:27;;;;;;;2.65;1.05;;;;;;;;;;5034067;28;20018;-82
2021/12/30 15:09:54;;;;;;;2.50;0.80;;;;;;;;;;5033015;28;20018;-82